Time;durP1;ratioP1;P1;durP2;ratioP2;P2;SDS_P1;SDS_P2;PMS_P1;PMS_P2;Temp;Humidity;BMP_temperature;BMP_pressure;BME280_temperature;BME280_humidity;BME280_pressure;Samples;Min_cycle;Max_cycle;Signal;HPM_P1;HPM_P2
2021/10/02 00:46:56;;;;;;;3.03;2.53;;;;;;;;;;5052816;28;20430;-74
2021/10/02 00:49:23;;;;;;;4.00;2.37;;;;;;;;;;5047387;28;20422;-74
2021/10/02 00:51:49;;;;;;;10.00;3.20;;;;;;;;;;5033699;28;20396;-74
2021/10/02 00:54:15;;;;;;;6.00;2.80;;;;;;;;;;5033906;28;20468;-74
2021/10/02 00:56:41;;;;;;;4.27;2.13;;;;;;;;;;5033615;28;20374;-74
2021/10/02 00:59:18;;;;;;;13.90;3.07;;;;;;;;;;5037618;28;20423;-74
2021/10/02 01:02:13;;;;;;;4.40;2.83;;;12.00;1.00;;;;;;5043500;28;20445;-74
2021/10/02 01:05:09;;;;;;;12.30;2.40;;;12.00;1.00;;;;;;5053075;28;20442;-74
2021/10/02 01:07:47;;;;;;;7.30;2.93;;;;;;;;;;5053478;28;20402;-74
2021/10/02 01:10:46;;;;;;;4.30;2.70;;;12.10;1.00;;;;;;5042696;28;20435;-74
2021/10/02 01:13:17;;;;;;;8.73;2.83;;;12.10;1.00;;;;;;5033171;28;20434;-74
2021/10/02 01:16:02;;;;;;;7.57;3.37;;;12.10;1.00;;;;;;5047319;28;20769;-73
2021/10/02 01:19:01;;;;;;;5.13;2.60;;;12.10;1.00;;;;;;5053422;28;20733;-74
2021/10/02 01:21:53;;;;;;;9.37;3.00;;;;;;;;;;5033526;28;20425;-73
2021/10/02 01:24:38;;;;;;;7.53;2.80;;;;;;;;;;5033688;28;20379;-73
2021/10/02 01:27:40;;;;;;;6.60;2.27;;;12.30;1.00;;;;;;5032038;28;20396;-73
2021/10/02 01:30:12;;;;;;;12.50;3.17;;;12.30;1.00;;;;;;5033081;28;20422;-74
2021/10/02 01:33:05;;;;;;;7.83;2.63;;;;;;;;;;5048103;28;20935;-74
2021/10/02 01:49:25;;;;;;;8.77;3.00;;;12.50;1.00;;;;;;5014869;28;20455;-74
2021/10/02 01:51:53;;;;;;;3.60;2.40;;;12.60;1.00;;;;;;5011174;28;20436;-73
2021/10/02 01:54:20;;;;;;;5.23;2.50;;;12.60;1.00;;;;;;5031484;28;20401;-73
2021/10/02 01:56:49;;;;;;;8.23;2.97;;;;;;;;;;5034008;28;20898;-73
2021/10/02 01:59:16;;;;;;;6.07;2.57;;;12.60;1.00;;;;;;5017786;28;20505;-73
2021/10/02 02:01:49;;;;;;;4.17;2.03;;;;;;;;;;5031686;28;20435;-73
2021/10/02 02:04:16;;;;;;;6.90;2.90;;;12.70;1.00;;;;;;5014128;28;20420;-74
2021/10/02 02:06:44;;;;;;;6.33;2.20;;;12.80;1.00;;;;;;5014186;28;20458;-73
2021/10/02 02:09:16;;;;;;;2.97;2.20;;;;;;;;;;5015532;28;20920;-74
2021/10/02 02:11:45;;;;;;;5.23;2.60;;;12.80;1.00;;;;;;5014015;28;20507;-73
2021/10/02 02:14:13;;;;;;;4.77;2.40;;;12.80;1.00;;;;;;5014233;28;20439;-74
2021/10/02 02:16:43;;;;;;;3.87;2.30;;;12.90;1.00;;;;;;5044392;28;20452;-74
2021/10/02 02:19:09;;;;;;;2.90;2.27;;;;;;;;;;5047136;28;20502;-74
2021/10/02 02:21:35;;;;;;;4.27;2.37;;;;;;;;;;5038673;28;20509;-74
2021/10/02 02:24:01;;;;;;;11.20;2.50;;;;;;;;;;5035246;28;20416;-74
2021/10/02 02:26:28;;;;;;;4.40;2.10;;;13.30;1.00;;;;;;5035747;28;20478;-74
2021/10/02 02:28:56;;;;;;;2.83;2.20;;;;;;;;;;5035728;28;20506;-74
2021/10/02 02:31:22;;;;;;;4.40;2.57;;;;;;;;;;5039423;28;20390;-74
2021/10/02 02:33:48;;;;;;;6.17;2.40;;;;;;;;;;5035825;28;20454;-74
2021/10/02 02:36:14;;;;;;;6.57;2.57;;;;;;;;;;5035755;28;20399;-74
2021/10/02 02:38:40;;;;;;;6.83;2.43;;;;;;;;;;5035865;28;20363;-74
2021/10/02 02:41:07;;;;;;;11.47;2.37;;;;;;;;;;5035685;28;20877;-74
2021/10/02 02:43:36;;;;;;;4.37;2.40;;;;;;;;;;5053229;28;20428;-73
2021/10/02 02:46:11;;;;;;;5.43;2.73;;;;;;;;;;5055554;28;20402;-73
2021/10/02 02:48:51;;;;;;;9.13;2.07;;;13.80;1.00;;;;;;5055211;28;20413;-74
2021/10/02 02:51:35;;;;;;;8.20;2.43;;;;;;;;;;5055469;28;20421;-73
2021/10/02 02:54:14;;;;;;;2.90;1.97;;;13.90;1.00;;;;;;5035411;28;20485;-73
2021/10/02 02:56:50;;;;;;;3.10;1.87;;;13.90;1.00;;;;;;5035903;28;20490;-73
2021/10/02 02:59:36;;;;;;;3.83;2.13;;;14.00;1.00;;;;;;5033589;28;20427;-74
2021/10/02 03:02:03;;;;;;;5.97;2.17;;;;;;;;;;5046900;28;20459;-74
2021/10/02 03:04:32;;;;;;;2.73;1.83;;;14.00;1.00;;;;;;5035274;28;20415;-74
2021/10/02 03:07:01;;;;;;;6.60;2.37;;;;;;;;;;5035092;28;20394;-74
2021/10/02 03:09:28;;;;;;;4.50;2.50;;;13.90;1.00;;;;;;5035261;28;20423;-74
2021/10/02 03:12:00;;;;;;;3.10;2.10;;;;;;;;;;5037468;28;20446;-74
2021/10/02 03:14:32;;;;;;;4.10;2.37;;;14.00;1.00;;;;;;5034782;28;20431;-73
2021/10/02 03:16:58;;;;;;;5.53;2.10;;;;;;;;;;5035024;28;20403;-74
2021/10/02 03:19:25;;;;;;;4.50;2.10;;;14.00;1.00;;;;;;5035112;28;20362;-74
2021/10/02 03:21:52;;;;;;;4.17;2.10;;;14.10;1.00;;;;;;5035000;28;20451;-74
2021/10/02 03:24:20;;;;;;;3.63;2.07;;;14.00;1.00;;;;;;5034654;28;20423;-73
2021/10/02 03:26:49;;;;;;;4.37;2.00;;;14.00;1.00;;;;;;5033903;28;20450;-74
2021/10/02 03:29:15;;;;;;;4.13;2.30;;;;;;;;;;5034816;28;20439;-74
2021/10/02 03:31:41;;;;;;;6.00;2.40;;;;;;;;;;5034756;28;20453;-74
2021/10/02 03:34:07;;;;;;;7.27;2.83;;;;;;;;;;5034600;28;20865;-74
2021/10/02 03:36:34;;;;;;;4.10;1.90;;;;;;;;;;5034418;28;20378;-74
2021/10/02 03:39:00;;;;;;;6.17;2.57;;;;;;;;;;5033268;28;20378;-74
2021/10/02 03:41:27;;;;;;;7.60;2.43;;;;;;;;;;5034490;28;20415;-74
2021/10/02 03:43:53;;;;;;;6.37;2.33;;;;;;;;;;5034296;28;20426;-74
2021/10/02 03:46:19;;;;;;;2.60;2.30;;;;;;;;;;5034411;28;20862;-74
2021/10/02 03:48:51;;;;;;;5.27;2.17;;;;;;;;;;5033180;28;20792;-74
2021/10/02 03:51:17;;;;;;;5.73;2.43;;;;;;;;;;5034307;28;20391;-73
2021/10/02 03:53:43;;;;;;;4.93;2.60;;;;;;;;;;5034274;28;20452;-73
2021/10/02 03:56:18;;;;;;;4.10;2.63;;;;;;;;;;5034482;28;20412;-74
2021/10/02 03:58:45;;;;;;;2.77;1.60;;;;;;;;;;5034395;28;20402;-74
2021/10/02 04:01:11;;;;;;;4.70;2.07;;;;;;;;;;5034177;28;20401;-74
2021/10/02 04:03:42;;;;;;;3.37;2.00;;;;;;;;;;5038816;28;20818;-74
2021/10/02 04:06:09;;;;;;;7.17;2.70;;;;;;;;;;5053999;28;20497;-73
2021/10/02 04:08:35;;;;;;;3.40;2.20;;;;;;;;;;5047582;28;20470;-74
2021/10/02 04:11:04;;;;;;;13.30;2.20;;;;;;;;;;5042950;28;20896;-73
2021/10/02 04:13:29;;;;;;;8.30;2.67;;;14.10;1.00;;;;;;5050900;28;20493;-73
2021/10/02 04:15:55;;;;;;;3.20;2.10;;;;;;;;;;5033972;28;20502;-74
2021/10/02 04:18:21;;;;;;;3.17;1.93;;;;;;;;;;5033985;28;20187;-74
2021/10/02 04:20:54;;;;;;;5.90;2.20;;;;;;;;;;5033884;28;20768;-73
2021/10/02 04:23:30;;;;;;;7.77;2.10;;;;;;;;;;5033743;28;20446;-74
2021/10/02 04:25:57;;;;;;;3.13;1.50;;;;;;;;;;5034082;28;20372;-74
2021/10/02 04:28:36;;;;;;;8.90;2.10;;;;;;;;;;5038754;28;20425;-74
2021/10/02 04:31:06;;;;;;;8.20;1.87;;;;;;;;;;5048741;28;20956;-74
2021/10/02 04:33:33;;;;;;;6.60;2.50;;;;;;;;;;5033547;28;20402;-75
2021/10/02 04:35:59;;;;;;;4.00;2.00;;;;;;;;;;5033435;28;20506;-74
2021/10/02 04:38:36;;;;;;;3.10;1.77;;;;;;;;;;5032439;28;20776;-74
2021/10/02 04:41:12;;;;;;;3.80;1.90;;;;;;;;;;5034014;28;20468;-79
2021/10/02 04:43:44;;;;;;;4.67;2.03;;;14.30;1.00;;;;;;5033493;28;20470;-74
2021/10/02 04:46:14;;;;;;;3.37;2.20;;;14.30;1.00;;;;;;5042396;28;20784;-74
2021/10/02 04:48:41;;;;;;;3.33;1.90;;;14.30;1.00;;;;;;5052353;28;20396;-75
2021/10/02 04:51:09;;;;;;;4.60;2.30;;;14.40;1.00;;;;;;5052017;28;20392;-73
2021/10/02 04:53:36;;;;;;;5.43;2.20;;;;;;;;;;5053440;28;20418;-73
2021/10/02 04:56:13;;;;;;;5.90;2.00;;;;;;;;;;5035807;28;20407;-73
2021/10/02 04:58:45;;;;;;;8.23;1.70;;;;;;;;;;5033527;28;20741;-73
2021/10/02 05:01:13;;;;;;;7.10;2.07;;;14.40;1.00;;;;;;5038897;28;20440;-73
2021/10/02 05:03:40;;;;;;;6.83;2.07;;;14.40;1.00;;;;;;5031941;28;20455;-73
2021/10/02 05:06:08;;;;;;;9.17;1.87;;;14.40;1.00;;;;;;5047752;28;20452;-73
2021/10/02 05:08:43;;;;;;;3.40;2.10;;;;;;;;;;5053526;28;20789;-73
2021/10/02 05:11:18;;;;;;;10.53;2.00;;;;;;;;;;5053822;28;20540;-73
2021/10/02 05:13:44;;;;;;;5.20;1.87;;;14.50;1.00;;;;;;5048237;28;20447;-73
2021/10/02 05:16:13;;;;;;;9.63;2.27;;;;;;;;;;5052435;28;20759;-73
2021/10/02 05:18:49;;;;;;;6.10;2.57;;;;;;;;;;5051903;28;20546;-73
2021/10/02 05:21:15;;;;;;;3.20;2.30;;;;;;;;;;5056739;28;20383;-74
2021/10/02 05:23:41;;;;;;;2.90;1.60;;;;;;;;;;5066702;28;20426;-73
2021/10/02 05:26:13;;;;;;;3.73;1.80;;;;;;;;;;5037253;28;20872;-73
2021/10/02 05:28:39;;;;;;;5.90;1.70;;;;;;;;;;5037092;28;20368;-74
2021/10/02 05:31:05;;;;;;;6.90;2.20;;;;;;;;;;5042494;28;20772;-74
2021/10/02 05:33:31;;;;;;;2.50;1.77;;;;;;;;;;5036869;28;20366;-74
2021/10/02 05:35:57;;;;;;;17.33;2.10;;;;;;;;;;5036613;28;20905;-74
2021/10/02 05:38:23;;;;;;;3.33;2.00;;;;;;;;;;5036990;28;20366;-74
2021/10/02 05:41:01;;;;;;;2.93;1.90;;;;;;;;;;5036630;28;20422;-79
2021/10/02 05:43:36;;;;;;;2.83;1.70;;;;;;;;;;5036988;28;20448;-73
2021/10/02 05:46:03;;;;;;;5.20;2.20;;;;;;;;;;5036449;28;20494;-73
2021/10/02 05:48:29;;;;;;;2.90;1.70;;;;;;;;;;5036661;28;20482;-73
2021/10/02 05:51:01;;;;;;;3.50;2.00;;;;;;;;;;5036629;28;20391;-73
2021/10/02 05:53:27;;;;;;;3.50;2.03;;;;;;;;;;5036639;28;20457;-73
2021/10/02 05:55:53;;;;;;;4.97;1.87;;;;;;;;;;5036401;28;20870;-73
2021/10/02 05:58:30;;;;;;;10.10;2.50;;;;;;;;;;5036829;28;20402;-74
2021/10/02 06:00:56;;;;;;;5.83;1.97;;;;;;;;;;5035151;28;20394;-74
2021/10/02 06:03:22;;;;;;;6.13;2.33;;;;;;;;;;5036294;28;20935;-75
2021/10/02 06:06:00;;;;;;;4.33;1.83;;;;;;;;;;5036283;28;20423;-74
2021/10/02 06:08:30;;;;;;;2.27;1.70;;;;;;;;;;5036514;28;20362;-74
2021/10/02 06:10:56;;;;;;;4.60;1.70;;;;;;;;;;5040478;28;20401;-74
2021/10/02 06:13:23;;;;;;;12.43;2.43;;;14.90;1.00;;;;;;5054704;28;20415;-73
2021/10/02 06:15:49;;;;;;;4.90;2.03;;;;;;;;;;5036062;28;20493;-73
2021/10/02 06:18:19;;;;;;;2.40;1.80;;;;;;;;;;5036274;28;20715;-73
2021/10/02 06:20:45;;;;;;;2.57;1.90;;;;;;;;;;5049194;28;20402;-73
2021/10/02 06:23:11;;;;;;;10.03;2.40;;;;;;;;;;5051978;28;20446;-73
2021/10/02 06:25:42;;;;;;;4.13;2.00;;;;;;;;;;5054995;28;20990;-73
2021/10/02 06:28:08;;;;;;;9.50;2.03;;;;;;;;;;5056114;28;20390;-74
2021/10/02 06:30:35;;;;;;;3.57;2.00;;;;;;;;;;5055833;28;20881;-74
2021/10/02 06:33:07;;;;;;;3.53;2.00;;;;;;;;;;5054951;28;20375;-74
2021/10/02 06:35:42;;;;;;;4.10;2.17;;;;;;;;;;5045222;28;20401;-78
2021/10/02 06:38:36;;;;;;;4.33;1.67;;;15.30;1.00;;;;;;5035803;28;20460;-79
2021/10/02 06:41:07;;;;;;;4.10;2.23;;;15.40;1.00;;;;;;5035736;28;20422;-76
2021/10/02 06:43:49;;;;;;;3.30;1.70;;;15.50;1.00;;;;;;5036194;28;20443;-78
2021/10/02 06:46:15;;;;;;;4.87;2.33;;;;;;;;;;5035398;28;20781;-74
2021/10/02 06:48:41;;;;;;;1.73;1.60;;;;;;;;;;5035642;28;20748;-73
2021/10/02 06:51:08;;;;;;;3.60;2.07;;;15.60;1.00;;;;;;5035484;28;20367;-73
2021/10/02 06:53:34;;;;;;;4.97;2.23;;;;;;;;;;5036524;28;20394;-74
2021/10/02 06:56:36;;;;;;;4.47;2.33;;;15.50;1.00;;;;;;5050628;28;20435;-82
2021/10/02 06:59:06;;;;;;;2.03;1.83;;;;;;;;;;5035577;28;20827;-82
2021/10/02 07:01:36;;;;;;;8.57;2.10;;;;;;;;;;5038328;28;20486;-74
2021/10/02 07:04:02;;;;;;;5.97;2.10;;;;;;;;;;5035110;28;20464;-73
2021/10/02 07:06:42;;;;;;;3.23;2.20;;;;;;;;;;5035179;28;20435;-73
2021/10/02 07:09:12;;;;;;;4.57;2.13;;;;;;;;;;5034935;28;20418;-73
2021/10/02 07:11:39;;;;;;;4.43;2.10;;;;;;;;;;5036462;28;20421;-73
2021/10/02 07:14:05;;;;;;;6.70;2.47;;;15.50;1.00;;;;;;5051889;28;20430;-73
2021/10/02 07:16:37;;;;;;;4.10;1.90;;;;;;;;;;5034716;28;20398;-73
2021/10/02 07:19:03;;;;;;;9.30;2.13;;;;;;;;;;5034299;28;20164;-73
2021/10/02 07:21:29;;;;;;;2.43;1.70;;;;;;;;;;5039993;28;20392;-77
2021/10/02 07:23:55;;;;;;;3.33;1.97;;;;;;;;;;5053603;28;20982;-73
2021/10/02 07:26:21;;;;;;;3.60;1.83;;;;;;;;;;5037027;28;20386;-73
2021/10/02 07:28:47;;;;;;;2.77;1.80;;;;;;;;;;5036799;28;20403;-74
2021/10/02 07:31:14;;;;;;;6.10;2.17;;;;;;;;;;5034578;28;22230;-74
2021/10/02 07:33:43;;;;;;;4.97;1.50;;;;;;;;;;5034740;28;20780;-74
2021/10/02 07:36:09;;;;;;;100.47;8.93;;;;;;;;;;5033583;28;20426;-74
2021/10/02 07:38:36;;;;;;;3.83;2.03;;;;;;;;;;5044762;28;20795;-74
2021/10/02 07:41:03;;;;;;;3.00;1.83;;;16.30;1.00;;;;;;5046406;28;20436;-74
2021/10/02 07:43:29;;;;;;;9.00;2.20;;;;;;;;;;5054423;28;20472;-74
2021/10/02 07:45:56;;;;;;;3.13;1.80;;;;;;;;;;5049745;28;20431;-73
2021/10/02 07:48:24;;;;;;;2.80;1.50;;;16.50;1.00;;;;;;5034400;28;20795;-73
2021/10/02 07:50:55;;;;;;;4.97;2.37;;;16.40;1.00;;;;;;5034414;28;20405;-73
2021/10/02 07:53:23;;;;;;;6.40;2.13;;;16.40;1.00;;;;;;5034296;28;20406;-73
2021/10/02 07:55:51;;;;;;;3.90;1.83;;;16.40;1.00;;;;;;5045493;28;20402;-73
2021/10/02 07:58:20;;;;;;;2.50;1.47;;;16.50;1.00;;;;;;5034524;28;20433;-73
2021/10/02 08:00:46;;;;;;;6.00;1.97;;;;;;;;;;5043969;28;20918;-72
2021/10/02 08:03:13;;;;;;;3.00;1.63;;;16.60;1.00;;;;;;5034100;28;21033;-73
2021/10/02 08:05:39;;;;;;;1.83;1.40;;;;;;;;;;5034044;28;20499;-73
2021/10/02 08:08:06;;;;;;;6.10;2.00;;;;;;;;;;5034057;28;20399;-73
2021/10/02 08:10:32;;;;;;;7.73;1.43;;;;;;;;;;5043867;28;20391;-73
2021/10/02 08:12:59;;;;;;;5.77;1.70;;;;;;;;;;5053068;28;20452;-73
2021/10/02 08:15:26;;;;;;;3.87;1.83;;;;;;;;;;5035811;28;20452;-73
2021/10/02 08:17:55;;;;;;;3.37;1.70;;;16.90;1.00;;;;;;5033750;28;20503;-73
2021/10/02 08:20:21;;;;;;;2.87;1.27;;;;;;;;;;5032533;28;20811;-73
2021/10/02 08:22:48;;;;;;;2.57;1.40;;;;;;;;;;5047905;28;20462;-73
2021/10/02 08:25:25;;;;;;;5.70;1.73;;;17.30;1.00;;;;;;5053008;28;20389;-73
2021/10/02 08:27:51;;;;;;;9.43;2.10;;;;;;;;;;5052100;28;20430;-73
2021/10/02 08:30:19;;;;;;;2.60;1.17;;;17.50;1.00;;;;;;5034089;28;20400;-77
2021/10/02 08:32:55;;;;;;;3.13;1.83;;;;;;;;;;5032635;28;20484;-73
2021/10/02 08:35:21;;;;;;;2.50;1.50;;;;;;;;;;5033434;28;20427;-75
2021/10/02 08:37:47;;;;;;;2.27;1.40;;;;;;;;;;5046072;28;20386;-74
2021/10/02 08:40:15;;;;;;;9.17;2.37;;;17.40;1.00;;;;;;5043848;28;20881;-73
2021/10/02 08:42:42;;;;;;;5.17;1.83;;;17.40;1.00;;;;;;5037907;28;20478;-73
2021/10/02 08:45:19;;;;;;;2.73;1.43;;;;;;;;;;5033885;28;20756;-73
2021/10/02 08:47:49;;;;;;;2.83;1.27;;;;;;;;;;5033521;28;20426;-73
2021/10/02 08:50:17;;;;;;;2.90;1.20;;;17.70;1.00;;;;;;5033547;28;20423;-73
2021/10/02 08:52:49;;;;;;;4.80;1.70;;;;;;;;;;5033551;28;20875;-73
2021/10/02 08:55:25;;;;;;;2.10;1.13;;;;;;;;;;5033583;28;20393;-73
2021/10/02 08:57:53;;;;;;;5.43;1.67;;;18.00;1.00;;;;;;5037067;28;20853;-73
2021/10/02 09:00:22;;;;;;;5.67;1.63;;;17.90;1.00;;;;;;5037657;28;20877;-73
2021/10/02 09:02:49;;;;;;;2.87;1.70;;;;;;;;;;5037209;28;20456;-73
2021/10/02 09:05:21;;;;;;;2.93;1.37;;;18.00;1.00;;;;;;5037365;28;20423;-73
2021/10/02 09:07:49;;;;;;;4.03;1.67;;;18.00;1.00;;;;;;5037388;28;20405;-73
2021/10/02 09:10:16;;;;;;;3.10;1.30;;;;;;;;;;5037658;28;20875;-73
2021/10/02 09:12:43;;;;;;;5.03;1.50;;;18.10;1.00;;;;;;5035874;28;20468;-73
2021/10/02 09:15:14;;;;;;;3.87;1.50;;;18.10;1.00;;;;;;5037819;28;20448;-80
2021/10/02 09:17:49;;;;;;;5.47;1.47;;;;;;;;;;5037868;28;20969;-80
2021/10/02 09:20:25;;;;;;;3.30;1.27;;;;;;;;;;5037123;28;20477;-75
2021/10/02 09:23:00;;;;;;;1.23;0.90;;;18.00;1.00;;;;;;5045815;28;20466;-74
2021/10/02 09:25:29;;;;;;;7.33;1.70;;;18.00;1.00;;;;;;5057377;28;20374;-75
2021/10/02 09:28:12;;;;;;;3.23;1.07;;;18.00;1.00;;;;;;5057145;28;20929;-75
2021/10/02 09:30:41;;;;;;;2.33;1.30;;;18.00;1.00;;;;;;5057119;28;20435;-75
2021/10/02 09:33:20;;;;;;;3.63;1.10;;;18.00;1.00;;;;;;5046567;28;20745;-75
2021/10/02 09:35:47;;;;;;;2.73;1.40;;;;;;;;;;5036847;28;20913;-75
2021/10/02 09:38:33;;;;;;;3.27;1.00;;;18.20;1.00;;;;;;5040357;28;20443;-79
2021/10/02 09:41:00;;;;;;;7.70;1.40;;;18.30;1.00;;;;;;5046753;28;20514;-80
2021/10/02 09:43:31;;;;;;;4.10;1.20;;;;;;;;;;5044855;28;20446;-77
2021/10/02 09:46:07;;;;;;;1.43;1.03;;;;;;;;;;5037251;28;20369;-78
2021/10/02 09:49:08;;;;;;;3.87;1.13;;;18.60;1.00;;;;;;5036517;28;20798;-78
2021/10/02 09:51:45;;;;;;;2.77;1.20;;;;;;;;;;4995054;28;20438;-76
2021/10/02 09:54:34;;;;;;;6.23;1.40;;;18.80;1.00;;;;;;5008340;28;20434;-76
2021/10/02 09:57:12;;;;;;;6.40;1.70;;;18.80;1.00;;;;;;5014968;28;20403;-73
2021/10/02 09:59:42;;;;;;;3.57;1.13;;;;;;;;;;5014901;28;20969;-78
2021/10/02 10:02:17;;;;;;;3.40;1.33;;;18.90;1.00;;;;;;5014476;28;20527;-74
2021/10/02 10:05:00;;;;;;;2.87;1.40;;;;;;;;;;5001275;28;20438;-74
2021/10/02 10:07:27;;;;;;;4.73;1.23;;;;;;;;;;4994037;28;20412;-73
2021/10/02 10:10:07;;;;;;;9.93;1.77;;;;;;;;;;5011026;28;20926;-76
2021/10/02 10:12:33;;;;;;;13.10;1.97;;;19.30;1.00;;;;;;5009796;28;20450;-76
2021/10/02 10:15:00;;;;;;;5.30;1.27;;;19.30;1.00;;;;;;5014038;28;20936;-76
2021/10/02 10:17:31;;;;;;;3.60;1.53;;;;;;;;;;5013798;28;20435;-74
2021/10/02 10:20:03;;;;;;;2.53;1.20;;;;;;;;;;5013871;28;20489;-74
2021/10/02 10:22:29;;;;;;;48.43;9.20;;;;;;;;;;4994910;28;20590;-75
2021/10/02 10:24:58;;;;;;;6.17;1.90;;;19.60;1.00;;;;;;5013555;28;20442;-76
2021/10/02 10:27:44;;;;;;;12.97;2.73;;;;;;;;;;5049645;28;20414;-76
2021/10/02 10:30:21;;;;;;;12.13;2.00;;;19.70;1.00;;;;;;5039413;28;20437;-73
2021/10/02 10:32:54;;;;;;;8.90;1.80;;;;;;;;;;5055592;28;20386;-77
2021/10/02 10:35:20;;;;;;;3.87;1.10;;;;;;;;;;5055524;28;20391;-75
2021/10/02 10:37:46;;;;;;;3.90;1.60;;;;;;;;;;5055433;28;20407;-73
2021/10/02 10:40:19;;;;;;;13.90;2.00;;;;;;;;;;5036464;28;20909;-72
2021/10/02 10:42:45;;;;;;;10.20;2.13;;;;;;;;;;5038659;28;20452;-72
2021/10/02 10:45:11;;;;;;;6.50;1.40;;;;;;;;;;5054130;28;20418;-72
2021/10/02 10:47:56;;;;;;;17.50;2.03;;;;;;;;;;5052527;28;20415;-77
2021/10/02 10:50:24;;;;;;;5.80;1.70;;;20.50;1.00;;;;;;5035555;28;20479;-76
2021/10/02 10:52:50;;;;;;;6.10;1.63;;;;;;;;;;5035508;28;20717;-74
2021/10/02 10:55:21;;;;;;;3.70;1.20;;;20.70;1.00;;;;;;5046500;28;20434;-79
2021/10/02 10:57:51;;;;;;;10.53;1.97;;;20.70;1.00;;;;;;5049663;28;20418;-75
2021/10/02 11:00:50;;;;;;;2.90;1.47;;;20.60;1.00;;;;;;5052063;28;20528;-76
2021/10/02 11:03:44;;;;;;;1.93;1.07;;;20.70;1.00;;;;;;5033036;28;20574;-79
2021/10/02 11:06:18;;;;;;;15.73;2.53;;;20.70;1.00;;;;;;5012677;28;20424;-75
2021/10/02 11:09:07;;;;;;;5.33;1.50;;;20.80;1.00;;;;;;5032658;28;20446;-78
2021/10/02 11:11:45;;;;;;;3.07;1.33;;;;;;;;;;5033102;28;20416;-71
2021/10/02 11:14:15;;;;;;;112.27;9.13;;;;;;;;;;5030311;28;20435;-71
2021/10/02 11:16:58;;;;;;;14.70;1.97;;;20.80;1.00;;;;;;5020958;28;20423;-74
2021/10/02 11:19:48;;;;;;;20.73;1.93;;;20.70;1.00;;;;;;5019151;28;20419;-77
2021/10/02 11:22:43;;;;;;;2.30;0.90;;;20.80;1.00;;;;;;5012880;28;20783;-76
2021/10/02 11:25:48;;;;;;;4.70;1.43;;;20.80;1.00;;;;;;5013134;28;20421;-79
2021/10/02 11:28:25;;;;;;;2.20;1.10;;;;;;;;;;5012926;28;20492;-75
2021/10/02 11:30:53;;;;;;;2.77;1.00;;;20.90;1.00;;;;;;4996758;28;20964;-76
2021/10/02 11:33:31;;;;;;;8.23;1.73;;;20.90;1.00;;;;;;5029562;28;20429;-76
2021/10/02 11:36:21;;;;;;;9.40;1.40;;;20.90;1.00;;;;;;5015539;28;20459;-80
2021/10/02 11:38:47;;;;;;;10.87;1.33;;;;;;;;;;5029957;28;20472;-77
2021/10/02 11:41:25;;;;;;;7.40;1.17;;;;;;;;;;5039899;28;21014;-78
2021/10/02 11:44:07;;;;;;;5.27;1.43;;;21.10;1.00;;;;;;5054133;28;20443;-84
2021/10/02 11:46:33;;;;;;;3.43;1.33;;;;;;;;;;5053490;28;20424;-73
2021/10/02 11:49:20;;;;;;;19.67;2.37;;;21.30;1.00;;;;;;5054055;28;20438;-75
2021/10/02 11:52:24;;;;;;;13.53;1.80;;;21.40;1.00;;;;;;5038151;28;20478;-81
2021/10/02 11:54:54;;;;;;;4.17;1.20;;;;;;;;;;5034344;28;20403;-82
2021/10/02 11:57:25;;;;;;;9.47;1.57;;;;;;;;;;5035645;28;20393;-82
2021/10/02 12:00:07;;;;;;;7.53;1.40;;;;;;;;;;5054288;28;20399;-83
2021/10/02 12:02:44;;;;;;;10.83;1.80;;;21.60;1.00;;;;;;5054499;28;20605;-75
2021/10/02 12:05:14;;;;;;;5.67;1.60;;;21.50;1.00;;;;;;5053745;28;20406;-75
2021/10/02 12:07:43;;;;;;;8.17;1.63;;;;;;;;;;5052471;28;20408;-76
2021/10/02 12:10:12;;;;;;;4.40;1.30;;;;;;;;;;5052704;28;20907;-78
2021/10/02 12:12:40;;;;;;;7.60;1.40;;;;;;;;;;5053676;28;20513;-81
2021/10/02 12:15:09;;;;;;;6.30;1.43;;;21.40;1.00;;;;;;5047592;28;20494;-73
2021/10/02 12:17:35;;;;;;;8.23;1.47;;;;;;;;;;5046759;28;20417;-73
2021/10/02 12:20:01;;;;;;;5.47;1.10;;;;;;;;;;5040051;28;20408;-73
2021/10/02 12:22:31;;;;;;;5.50;1.47;;;21.40;1.00;;;;;;5053289;28;20537;-73
2021/10/02 12:24:57;;;;;;;4.17;1.30;;;;;;;;;;5053054;28;20753;-73
2021/10/02 12:27:28;;;;;;;5.73;1.40;;;21.50;1.00;;;;;;5035212;28;20892;-73
2021/10/02 12:29:57;;;;;;;6.30;1.67;;;21.50;1.00;;;;;;5040475;28;20412;-75
2021/10/02 12:32:30;;;;;;;2.50;1.50;;;21.50;1.00;;;;;;5034178;28;20871;-74
2021/10/02 12:35:01;;;;;;;8.37;1.77;;;21.70;1.00;;;;;;5033419;28;20409;-74
2021/10/02 12:37:35;;;;;;;6.00;1.43;;;21.80;1.00;;;;;;5033925;28;20521;-73
2021/10/02 12:40:07;;;;;;;1.33;1.23;;;22.00;1.00;;;;;;5044785;28;20465;-73
2021/10/02 12:42:37;;;;;;;12.00;1.70;;;;;;;;;;5036177;28;20457;-75
2021/10/02 12:45:18;;;;;;;3.30;1.43;;;22.20;1.00;;;;;;5057295;28;20937;-73
2021/10/02 12:47:48;;;;;;;7.83;1.40;;;;;;;;;;5033598;28;20434;-73
2021/10/02 12:50:24;;;;;;;9.70;1.80;;;22.30;1.00;;;;;;5033559;28;20610;-73
2021/10/02 12:52:52;;;;;;;1.30;1.03;;;22.40;1.00;;;;;;5033443;28;20410;-73
2021/10/02 12:55:18;;;;;;;2.30;1.60;;;22.50;1.00;;;;;;5033617;28;20391;-73
2021/10/02 12:57:46;;;;;;;2.70;1.00;;;22.50;1.00;;;;;;5033496;28;20844;-73
2021/10/02 13:00:14;;;;;;;1.77;1.07;;;;;;;;;;5031976;28;20406;-74
2021/10/02 13:02:50;;;;;;;9.63;1.60;;;22.70;1.00;;;;;;5032944;28;20956;-74
2021/10/02 13:05:20;;;;;;;1.37;0.90;;;22.60;1.00;;;;;;5032691;28;20390;-73
2021/10/02 13:07:48;;;;;;;3.33;1.27;;;;;;;;;;5032691;28;20381;-73
2021/10/02 13:10:22;;;;;;;1.63;1.10;;;22.50;1.00;;;;;;5031209;28;20425;-73
2021/10/02 13:12:48;;;;;;;2.40;1.27;;;;;;;;;;5032241;28;20408;-73
2021/10/02 13:15:23;;;;;;;6.83;2.00;;;;;;;;;;5031020;28;20913;-73
2021/10/02 13:18:13;;;;;;;2.60;1.43;;;22.20;1.00;;;;;;5032788;28;20416;-76
2021/10/02 13:20:39;;;;;;;4.37;1.10;;;;;;;;;;5032802;28;20468;-76
2021/10/02 13:23:15;;;;;;;2.33;1.20;;;22.20;1.00;;;;;;5032543;28;20505;-76
2021/10/02 13:25:41;;;;;;;6.03;1.70;;;;;;;;;;5032788;28;20428;-76
2021/10/02 13:28:19;;;;;;;2.07;1.17;;;22.30;1.00;;;;;;5032547;28;20427;-76
2021/10/02 13:30:45;;;;;;;1.93;1.10;;;;;;;;;;5032527;28;20455;-76
2021/10/02 13:33:15;;;;;;;2.80;1.70;;;22.50;1.00;;;;;;5032761;28;20893;-73
2021/10/02 13:35:46;;;;;;;2.80;1.33;;;;;;;;;;5030901;28;20467;-73
2021/10/02 13:38:12;;;;;;;5.80;2.07;;;;;;;;;;5032267;28;20426;-73
2021/10/02 13:40:47;;;;;;;7.27;2.00;;;;;;;;;;5032007;28;20743;-73
2021/10/02 13:43:15;;;;;;;4.37;1.73;;;;;;;;;;5043572;28;20462;-73
2021/10/02 13:45:43;;;;;;;5.87;1.33;;;23.00;1.00;;;;;;5055870;28;20397;-73
2021/10/02 13:48:11;;;;;;;1.83;1.33;;;;;;;;;;5056098;28;20416;-73
2021/10/02 13:50:39;;;;;;;3.03;1.63;;;23.00;1.00;;;;;;5055785;28;20394;-73
2021/10/02 13:53:05;;;;;;;2.70;1.43;;;;;;;;;;5055813;28;20441;-73
2021/10/02 13:55:32;;;;;;;1.63;1.20;;;;;;;;;;5055731;28;20394;-73
2021/10/02 13:57:58;;;;;;;1.37;1.03;;;23.00;1.00;;;;;;5055625;28;20892;-73
2021/10/02 14:00:25;;;;;;;4.93;1.50;;;23.00;1.00;;;;;;5055869;28;20412;-73
2021/10/02 14:02:52;;;;;;;6.93;1.50;;;;;;;;;;5055889;28;20500;-76
2021/10/02 14:05:18;;;;;;;1.87;1.00;;;;;;;;;;5055476;28;20442;-76
2021/10/02 14:07:44;;;;;;;1.60;1.50;;;;;;;;;;5055538;28;20448;-76
2021/10/02 14:10:10;;;;;;;2.10;1.13;;;;;;;;;;5055755;28;20816;-76
2021/10/02 14:12:36;;;;;;;3.07;1.20;;;;;;;;;;5055417;28;20403;-76
2021/10/02 14:15:04;;;;;;;4.33;1.70;;;23.40;1.00;;;;;;5055079;28;20568;-76
2021/10/02 14:17:30;;;;;;;1.70;1.33;;;;;;;;;;5055713;28;20950;-75
2021/10/02 14:19:56;;;;;;;3.10;1.63;;;;;;;;;;5055282;28;20460;-75
2021/10/02 14:22:22;;;;;;;3.17;1.37;;;;;;;;;;5055100;28;20444;-73
2021/10/02 14:24:48;;;;;;;1.40;1.30;;;;;;;;;;5053875;28;20756;-73
2021/10/02 14:27:14;;;;;;;2.07;1.30;;;;;;;;;;5055040;28;20812;-73
2021/10/02 14:29:40;;;;;;;6.50;1.87;;;;;;;;;;5054985;28;20451;-73
2021/10/02 14:32:07;;;;;;;1.47;1.30;;;;;;;;;;5055300;28;20397;-73
2021/10/02 14:34:33;;;;;;;2.70;1.60;;;;;;;;;;5055372;28;20391;-76
2021/10/02 14:36:59;;;;;;;2.40;1.50;;;;;;;;;;5054514;28;20430;-75
2021/10/02 14:39:25;;;;;;;11.40;1.83;;;;;;;;;;5054818;28;20424;-75
2021/10/02 14:41:51;;;;;;;2.80;1.40;;;;;;;;;;5054563;28;20851;-75
2021/10/02 14:44:17;;;;;;;2.03;1.50;;;;;;;;;;5053343;28;20994;-76
2021/10/02 14:46:43;;;;;;;3.27;1.53;;;;;;;;;;5054543;28;20424;-76
2021/10/02 14:49:09;;;;;;;2.80;1.27;;;;;;;;;;5055090;28;20391;-73
2021/10/02 14:51:36;;;;;;;2.70;1.30;;;23.30;1.00;;;;;;5054666;28;20581;-73
2021/10/02 14:54:02;;;;;;;3.37;1.50;;;;;;;;;;5053932;28;20400;-73
2021/10/02 14:56:30;;;;;;;3.70;1.30;;;23.40;1.00;;;;;;5054537;28;20408;-73
2021/10/02 14:59:00;;;;;;;2.47;1.40;;;23.40;1.00;;;;;;5054431;28;20400;-73
2021/10/02 15:01:26;;;;;;;1.83;1.20;;;;;;;;;;5054461;28;20415;-73
2021/10/02 15:03:52;;;;;;;1.40;1.30;;;23.20;1.00;;;;;;5053458;28;20930;-76
2021/10/02 15:06:19;;;;;;;14.50;2.30;;;;;;;;;;5054375;28;20392;-75
2021/10/02 15:08:45;;;;;;;2.20;1.30;;;;;;;;;;5054420;28;20395;-76
2021/10/02 15:11:11;;;;;;;4.10;1.27;;;22.90;1.00;;;;;;5053238;28;20425;-76
2021/10/02 15:13:38;;;;;;;2.83;1.37;;;22.80;1.00;;;;;;5053901;28;20442;-75
2021/10/02 15:16:05;;;;;;;2.30;1.17;;;22.80;1.00;;;;;;5054268;28;20805;-75
2021/10/02 15:18:33;;;;;;;5.07;1.40;;;22.80;1.00;;;;;;5053230;28;20419;-75